sensor_id;sensor_type;location;lat;lon;timestamp;temperature;humidity
60234;DHT22;49514;43.538;-5.708;2023-03-01T00:01:32;9.20;90.10
60234;DHT22;49514;43.538;-5.708;2023-03-01T00:03:59;9.20;90.40
60234;DHT22;49514;43.538;-5.708;2023-03-01T00:06:27;9.20;90.60
60234;DHT22;49514;43.538;-5.708;2023-03-01T00:08:54;9.20;91.00
60234;DHT22;49514;43.538;-5.708;2023-03-01T00:11:24;9.20;91.20
60234;DHT22;49514;43.538;-5.708;2023-03-01T00:13:53;9.10;91.40
60234;DHT22;49514;43.538;-5.708;2023-03-01T00:16:41;9.00;91.10
60234;DHT22;49514;43.538;-5.708;2023-03-01T00:19:18;8.90;91.40
60234;DHT22;49514;43.538;-5.708;2023-03-01T00:21:46;8.80;91.90
60234;DHT22;49514;43.538;-5.708;2023-03-01T00:24:13;8.60;91.40
60234;DHT22;49514;43.538;-5.708;2023-03-01T00:26:40;8.50;91.60
60234;DHT22;49514;43.538;-5.708;2023-03-01T00:29:08;8.40;92.10
60234;DHT22;49514;43.538;-5.708;2023-03-01T00:31:36;8.30;91.80
60234;DHT22;49514;43.538;-5.708;2023-03-01T00:34:05;8.20;91.80
60234;DHT22;49514;43.538;-5.708;2023-03-01T00:36:34;8.20;92.50
60234;DHT22;49514;43.538;-5.708;2023-03-01T00:39:04;8.20;93.10
60234;DHT22;49514;43.538;-5.708;2023-03-01T00:41:31;8.00;93.10
60234;DHT22;49514;43.538;-5.708;2023-03-01T00:44:00;8.00;93.20
60234;DHT22;49514;43.538;-5.708;2023-03-01T00:46:27;7.90;93.80
60234;DHT22;49514;43.538;-5.708;2023-03-01T00:48:56;7.80;94.60
60234;DHT22;49514;43.538;-5.708;2023-03-01T00:51:25;7.70;94.40
60234;DHT22;49514;43.538;-5.708;2023-03-01T00:53:59;7.60;95.50
60234;DHT22;49514;43.538;-5.708;2023-03-01T00:56:27;7.60;96.00
60234;DHT22;49514;43.538;-5.708;2023-03-01T00:58:54;7.50;96.10
60234;DHT22;49514;43.538;-5.708;2023-03-01T01:01:23;7.40;96.70
60234;DHT22;49514;43.538;-5.708;2023-03-01T01:03:56;7.30;97.70
60234;DHT22;49514;43.538;-5.708;2023-03-01T01:06:31;7.30;98.60
60234;DHT22;49514;43.538;-5.708;2023-03-01T01:08:59;7.20;99.10
60234;DHT22;49514;43.538;-5.708;2023-03-01T01:11:27;7.20;99.70
60234;DHT22;49514;43.538;-5.708;2023-03-01T01:13:54;7.10;99.90
60234;DHT22;49514;43.538;-5.708;2023-03-01T01:16:23;7.00;99.90
60234;DHT22;49514;43.538;-5.708;2023-03-01T01:18:52;7.00;99.90
60234;DHT22;49514;43.538;-5.708;2023-03-01T01:21:21;7.00;99.90
60234;DHT22;49514;43.538;-5.708;2023-03-01T01:23:49;7.00;99.90
60234;DHT22;49514;43.538;-5.708;2023-03-01T01:51:10;6.60;99.90
60234;DHT22;49514;43.538;-5.708;2023-03-01T01:53:38;6.60;99.90
60234;DHT22;49514;43.538;-5.708;2023-03-01T01:56:07;6.60;99.90
60234;DHT22;49514;43.538;-5.708;2023-03-01T01:58:36;6.50;99.90
60234;DHT22;49514;43.538;-5.708;2023-03-01T02:08:47;6.40;99.90
60234;DHT22;49514;43.538;-5.708;2023-03-01T02:11:15;6.20;99.90
60234;DHT22;49514;43.538;-5.708;2023-03-01T02:13:44;6.10;99.90
60234;DHT22;49514;43.538;-5.708;2023-03-01T02:16:13;6.00;99.90
60234;DHT22;49514;43.538;-5.708;2023-03-01T02:18:41;6.00;99.90
60234;DHT22;49514;43.538;-5.708;2023-03-01T02:23:44;5.90;99.90
60234;DHT22;49514;43.538;-5.708;2023-03-01T02:26:24;5.90;99.90
60234;DHT22;49514;43.538;-5.708;2023-03-01T02:28:54;5.80;99.90
60234;DHT22;49514;43.538;-5.708;2023-03-01T02:31:21;5.80;99.90
60234;DHT22;49514;43.538;-5.708;2023-03-01T02:34:08;5.70;99.90
60234;DHT22;49514;43.538;-5.708;2023-03-01T02:36:47;5.70;99.90
60234;DHT22;49514;43.538;-5.708;2023-03-01T02:39:25;5.60;99.90
60234;DHT22;49514;43.538;-5.708;2023-03-01T02:41:54;5.60;99.90
60234;DHT22;49514;43.538;-5.708;2023-03-01T02:44:22;5.50;99.90
60234;DHT22;49514;43.538;-5.708;2023-03-01T02:46:53;5.40;99.90
60234;DHT22;49514;43.538;-5.708;2023-03-01T02:49:29;5.40;99.90
60234;DHT22;49514;43.538;-5.708;2023-03-01T02:54:47;5.20;99.90
60234;DHT22;49514;43.538;-5.708;2023-03-01T02:57:18;5.20;99.90
60234;DHT22;49514;43.538;-5.708;2023-03-01T02:59:45;5.20;99.90
60234;DHT22;49514;43.538;-5.708;2023-03-01T03:02:24;5.10;99.90
60234;DHT22;49514;43.538;-5.708;2023-03-01T03:05:31;5.20;99.90
60234;DHT22;49514;43.538;-5.708;2023-03-01T03:08:00;5.10;99.90
60234;DHT22;49514;43.538;-5.708;2023-03-01T03:10:31;5.10;99.90
60234;DHT22;49514;43.538;-5.708;2023-03-01T03:13:10;5.10;99.90
60234;DHT22;49514;43.538;-5.708;2023-03-01T03:15:39;5.10;99.90
60234;DHT22;49514;43.538;-5.708;2023-03-01T03:21:48;5.00;99.90
60234;DHT22;49514;43.538;-5.708;2023-03-01T03:24:15;5.00;99.90
60234;DHT22;49514;43.538;-5.708;2023-03-01T03:26:43;5.00;99.90
60234;DHT22;49514;43.538;-5.708;2023-03-01T03:29:10;4.90;99.90
60234;DHT22;49514;43.538;-5.708;2023-03-01T03:31:36;4.90;99.90
60234;DHT22;49514;43.538;-5.708;2023-03-01T03:34:03;4.90;99.90
60234;DHT22;49514;43.538;-5.708;2023-03-01T03:36:30;4.90;99.90
60234;DHT22;49514;43.538;-5.708;2023-03-01T03:38:56;4.90;99.90
60234;DHT22;49514;43.538;-5.708;2023-03-01T03:41:23;4.80;99.90
60234;DHT22;49514;43.538;-5.708;2023-03-01T03:43:50;4.80;99.90
60234;DHT22;49514;43.538;-5.708;2023-03-01T03:46:17;4.80;99.90
60234;DHT22;49514;43.538;-5.708;2023-03-01T03:48:45;4.80;99.90
60234;DHT22;49514;43.538;-5.708;2023-03-01T03:51:16;4.80;99.90
60234;DHT22;49514;43.538;-5.708;2023-03-01T03:53:44;4.80;99.90
60234;DHT22;49514;43.538;-5.708;2023-03-01T03:56:12;4.80;99.90
60234;DHT22;49514;43.538;-5.708;2023-03-01T03:58:39;4.80;99.90
60234;DHT22;49514;43.538;-5.708;2023-03-01T04:01:06;4.80;99.90
60234;DHT22;49514;43.538;-5.708;2023-03-01T04:03:33;4.80;99.90
60234;DHT22;49514;43.538;-5.708;2023-03-01T04:06:01;4.80;99.90
60234;DHT22;49514;43.538;-5.708;2023-03-01T04:08:28;4.90;99.90
60234;DHT22;49514;43.538;-5.708;2023-03-01T04:11:00;4.90;99.90
60234;DHT22;49514;43.538;-5.708;2023-03-01T04:13:47;4.90;99.90
60234;DHT22;49514;43.538;-5.708;2023-03-01T04:16:14;4.90;99.90
60234;DHT22;49514;43.538;-5.708;2023-03-01T04:18:41;5.00;99.90
60234;DHT22;49514;43.538;-5.708;2023-03-01T04:21:08;5.00;99.90
60234;DHT22;49514;43.538;-5.708;2023-03-01T04:23:34;5.00;99.90
60234;DHT22;49514;43.538;-5.708;2023-03-01T04:26:01;5.00;99.90
60234;DHT22;49514;43.538;-5.708;2023-03-01T04:28:31;5.10;99.90
60234;DHT22;49514;43.538;-5.708;2023-03-01T04:31:14;5.10;99.90
60234;DHT22;49514;43.538;-5.708;2023-03-01T04:36:15;5.10;99.90
60234;DHT22;49514;43.538;-5.708;2023-03-01T05:28:19;5.40;99.90
60234;DHT22;49514;43.538;-5.708;2023-03-01T05:30:46;5.40;99.90
60234;DHT22;49514;43.538;-5.708;2023-03-01T05:33:13;5.40;99.90
60234;DHT22;49514;43.538;-5.708;2023-03-01T05:35:41;5.40;99.90
60234;DHT22;49514;43.538;-5.708;2023-03-01T05:38:09;5.40;99.90
60234;DHT22;49514;43.538;-5.708;2023-03-01T05:40:44;5.40;99.90
60234;DHT22;49514;43.538;-5.708;2023-03-01T05:43:13;5.40;99.90
60234;DHT22;49514;43.538;-5.708;2023-03-01T05:45:41;5.40;99.90
60234;DHT22;49514;43.538;-5.708;2023-03-01T05:48:08;5.40;99.90
60234;DHT22;49514;43.538;-5.708;2023-03-01T05:50:38;5.50;99.90
60234;DHT22;49514;43.538;-5.708;2023-03-01T05:53:16;5.40;99.90
60234;DHT22;49514;43.538;-5.708;2023-03-01T05:55:44;5.40;99.90
60234;DHT22;49514;43.538;-5.708;2023-03-01T05:58:16;5.50;99.90
60234;DHT22;49514;43.538;-5.708;2023-03-01T06:00:45;5.40;99.90
60234;DHT22;49514;43.538;-5.708;2023-03-01T06:03:13;5.40;99.90
60234;DHT22;49514;43.538;-5.708;2023-03-01T06:05:41;5.40;99.90
60234;DHT22;49514;43.538;-5.708;2023-03-01T06:08:09;5.40;99.90
60234;DHT22;49514;43.538;-5.708;2023-03-01T06:10:37;5.40;99.90
60234;DHT22;49514;43.538;-5.708;2023-03-01T06:13:03;5.40;99.90
60234;DHT22;49514;43.538;-5.708;2023-03-01T06:15:30;5.40;99.90
60234;DHT22;49514;43.538;-5.708;2023-03-01T06:17:57;5.40;99.90
60234;DHT22;49514;43.538;-5.708;2023-03-01T06:20:26;5.40;99.90
60234;DHT22;49514;43.538;-5.708;2023-03-01T06:22:53;5.50;99.90
60234;DHT22;49514;43.538;-5.708;2023-03-01T06:25:22;5.50;99.90
60234;DHT22;49514;43.538;-5.708;2023-03-01T06:27:49;5.50;99.90
60234;DHT22;49514;43.538;-5.708;2023-03-01T06:30:18;5.50;99.90
60234;DHT22;49514;43.538;-5.708;2023-03-01T06:32:45;5.50;99.90
60234;DHT22;49514;43.538;-5.708;2023-03-01T06:35:14;5.60;99.90
60234;DHT22;49514;43.538;-5.708;2023-03-01T06:37:45;5.60;99.90
60234;DHT22;49514;43.538;-5.708;2023-03-01T06:40:12;5.60;99.90
60234;DHT22;49514;43.538;-5.708;2023-03-01T06:42:41;5.60;99.90
60234;DHT22;49514;43.538;-5.708;2023-03-01T06:45:09;5.60;99.90
60234;DHT22;49514;43.538;-5.708;2023-03-01T06:47:36;5.70;99.90
60234;DHT22;49514;43.538;-5.708;2023-03-01T06:50:03;5.70;99.90
60234;DHT22;49514;43.538;-5.708;2023-03-01T06:52:30;5.70;99.90
60234;DHT22;49514;43.538;-5.708;2023-03-01T06:54:57;5.70;99.90
60234;DHT22;49514;43.538;-5.708;2023-03-01T06:57:24;5.80;99.90
60234;DHT22;49514;43.538;-5.708;2023-03-01T06:59:51;5.80;99.90
60234;DHT22;49514;43.538;-5.708;2023-03-01T07:02:17;5.80;99.90
60234;DHT22;49514;43.538;-5.708;2023-03-01T07:04:44;5.80;99.90
60234;DHT22;49514;43.538;-5.708;2023-03-01T07:07:11;5.80;99.90
60234;DHT22;49514;43.538;-5.708;2023-03-01T07:09:38;5.90;99.90
60234;DHT22;49514;43.538;-5.708;2023-03-01T07:12:05;5.90;99.90
60234;DHT22;49514;43.538;-5.708;2023-03-01T07:14:32;5.90;99.90
60234;DHT22;49514;43.538;-5.708;2023-03-01T07:16:58;5.90;99.90
60234;DHT22;49514;43.538;-5.708;2023-03-01T07:19:27;5.90;99.90
60234;DHT22;49514;43.538;-5.708;2023-03-01T07:21:54;5.90;99.90
60234;DHT22;49514;43.538;-5.708;2023-03-01T07:24:22;6.00;99.90
60234;DHT22;49514;43.538;-5.708;2023-03-01T07:26:50;5.90;99.90
60234;DHT22;49514;43.538;-5.708;2023-03-01T07:31:44;5.90;99.90
60234;DHT22;49514;43.538;-5.708;2023-03-01T07:34:11;5.90;99.90
60234;DHT22;49514;43.538;-5.708;2023-03-01T07:36:38;6.00;99.90
60234;DHT22;49514;43.538;-5.708;2023-03-01T07:39:05;6.00;99.90
60234;DHT22;49514;43.538;-5.708;2023-03-01T07:41:32;6.00;99.90
60234;DHT22;49514;43.538;-5.708;2023-03-01T07:43:59;6.10;99.90
60234;DHT22;49514;43.538;-5.708;2023-03-01T07:46:26;6.10;99.90
60234;DHT22;49514;43.538;-5.708;2023-03-01T07:48:52;6.00;99.90
60234;DHT22;49514;43.538;-5.708;2023-03-01T07:51:19;6.00;99.90
60234;DHT22;49514;43.538;-5.708;2023-03-01T07:53:47;5.90;99.90
60234;DHT22;49514;43.538;-5.708;2023-03-01T07:56:15;5.90;99.90
60234;DHT22;49514;43.538;-5.708;2023-03-01T07:58:44;5.90;99.90
60234;DHT22;49514;43.538;-5.708;2023-03-01T08:01:16;5.90;99.90
60234;DHT22;49514;43.538;-5.708;2023-03-01T08:03:42;5.90;99.90
60234;DHT22;49514;43.538;-5.708;2023-03-01T08:06:11;5.80;99.90
60234;DHT22;49514;43.538;-5.708;2023-03-01T08:08:38;5.80;99.90
60234;DHT22;49514;43.538;-5.708;2023-03-01T08:11:07;5.80;99.90
60234;DHT22;49514;43.538;-5.708;2023-03-01T08:13:34;5.90;99.90
60234;DHT22;49514;43.538;-5.708;2023-03-01T08:16:10;5.90;99.90
60234;DHT22;49514;43.538;-5.708;2023-03-01T08:18:37;5.90;99.90
60234;DHT22;49514;43.538;-5.708;2023-03-01T08:21:08;6.00;99.90
60234;DHT22;49514;43.538;-5.708;2023-03-01T08:23:36;6.00;99.90
60234;DHT22;49514;43.538;-5.708;2023-03-01T08:26:07;6.00;99.90
60234;DHT22;49514;43.538;-5.708;2023-03-01T08:28:35;5.90;99.90
60234;DHT22;49514;43.538;-5.708;2023-03-01T08:31:02;5.90;99.90
60234;DHT22;49514;43.538;-5.708;2023-03-01T08:33:29;5.90;99.90
60234;DHT22;49514;43.538;-5.708;2023-03-01T08:36:04;5.90;99.90
60234;DHT22;49514;43.538;-5.708;2023-03-01T08:38:30;6.00;99.90
60234;DHT22;49514;43.538;-5.708;2023-03-01T08:41:00;6.00;99.90
60234;DHT22;49514;43.538;-5.708;2023-03-01T08:43:27;6.10;99.90
60234;DHT22;49514;43.538;-5.708;2023-03-01T08:45:53;6.10;99.90
60234;DHT22;49514;43.538;-5.708;2023-03-01T08:48:20;6.10;99.90
60234;DHT22;49514;43.538;-5.708;2023-03-01T08:50:47;6.00;99.90
60234;DHT22;49514;43.538;-5.708;2023-03-01T08:53:14;6.00;99.90
60234;DHT22;49514;43.538;-5.708;2023-03-01T08:55:40;6.00;99.90
60234;DHT22;49514;43.538;-5.708;2023-03-01T08:58:07;5.90;99.90
60234;DHT22;49514;43.538;-5.708;2023-03-01T09:00:33;5.70;99.90
60234;DHT22;49514;43.538;-5.708;2023-03-01T09:03:01;5.70;99.90
60234;DHT22;49514;43.538;-5.708;2023-03-01T09:05:31;5.60;99.90
60234;DHT22;49514;43.538;-5.708;2023-03-01T09:07:58;5.60;99.90
60234;DHT22;49514;43.538;-5.708;2023-03-01T09:10:25;5.60;99.90
60234;DHT22;49514;43.538;-5.708;2023-03-01T09:12:52;5.60;99.90
60234;DHT22;49514;43.538;-5.708;2023-03-01T09:15:19;5.70;99.90
60234;DHT22;49514;43.538;-5.708;2023-03-01T09:17:45;5.70;99.90
60234;DHT22;49514;43.538;-5.708;2023-03-01T09:20:13;5.70;99.90
60234;DHT22;49514;43.538;-5.708;2023-03-01T09:22:40;5.70;99.90
60234;DHT22;49514;43.538;-5.708;2023-03-01T09:25:06;5.60;99.90
60234;DHT22;49514;43.538;-5.708;2023-03-01T09:27:33;5.50;99.90
60234;DHT22;49514;43.538;-5.708;2023-03-01T09:30:00;5.50;99.90
60234;DHT22;49514;43.538;-5.708;2023-03-01T09:32:27;5.40;99.90
60234;DHT22;49514;43.538;-5.708;2023-03-01T09:34:56;5.30;99.90
60234;DHT22;49514;43.538;-5.708;2023-03-01T09:37:31;5.20;99.90
60234;DHT22;49514;43.538;-5.708;2023-03-01T09:39:58;5.20;99.90
60234;DHT22;49514;43.538;-5.708;2023-03-01T09:42:25;5.20;99.90
60234;DHT22;49514;43.538;-5.708;2023-03-01T09:44:56;5.30;99.90
60234;DHT22;49514;43.538;-5.708;2023-03-01T09:47:27;5.30;99.90
60234;DHT22;49514;43.538;-5.708;2023-03-01T09:52:41;5.50;99.90
60234;DHT22;49514;43.538;-5.708;2023-03-01T09:55:14;5.70;99.90
60234;DHT22;49514;43.538;-5.708;2023-03-01T09:57:53;5.70;99.90
60234;DHT22;49514;43.538;-5.708;2023-03-01T10:00:29;5.90;99.90
60234;DHT22;49514;43.538;-5.708;2023-03-01T10:03:15;6.00;99.90
60234;DHT22;49514;43.538;-5.708;2023-03-01T10:08:53;6.50;99.90
60234;DHT22;49514;43.538;-5.708;2023-03-01T10:11:26;6.80;99.90
60234;DHT22;49514;43.538;-5.708;2023-03-01T10:14:33;7.00;99.90
60234;DHT22;49514;43.538;-5.708;2023-03-01T10:17:03;7.10;99.90
60234;DHT22;49514;43.538;-5.708;2023-03-01T10:24:40;6.90;99.90
60234;DHT22;49514;43.538;-5.708;2023-03-01T10:27:25;7.00;99.90
60234;DHT22;49514;43.538;-5.708;2023-03-01T10:30:00;7.20;99.90
60234;DHT22;49514;43.538;-5.708;2023-03-01T10:32:32;7.30;99.90
60234;DHT22;49514;43.538;-5.708;2023-03-01T10:34:59;7.40;99.90
60234;DHT22;49514;43.538;-5.708;2023-03-01T10:37:26;7.30;99.90
60234;DHT22;49514;43.538;-5.708;2023-03-01T10:40:07;7.40;99.90
60234;DHT22;49514;43.538;-5.708;2023-03-01T10:42:47;7.60;99.90
60234;DHT22;49514;43.538;-5.708;2023-03-01T10:50:34;8.60;99.90
60234;DHT22;49514;43.538;-5.708;2023-03-01T10:53:04;8.80;99.90
60234;DHT22;49514;43.538;-5.708;2023-03-01T10:55:35;9.00;99.90
60234;DHT22;49514;43.538;-5.708;2023-03-01T11:00:53;9.00;99.90
60234;DHT22;49514;43.538;-5.708;2023-03-01T11:03:27;8.70;99.90
60234;DHT22;49514;43.538;-5.708;2023-03-01T11:05:57;8.30;99.90
60234;DHT22;49514;43.538;-5.708;2023-03-01T11:08:31;8.00;99.90
60234;DHT22;49514;43.538;-5.708;2023-03-01T11:11:03;7.70;99.90
60234;DHT22;49514;43.538;-5.708;2023-03-01T11:13:30;7.40;99.90
60234;DHT22;49514;43.538;-5.708;2023-03-01T11:16:10;7.10;99.90
60234;DHT22;49514;43.538;-5.708;2023-03-01T11:18:38;6.90;99.90
60234;DHT22;49514;43.538;-5.708;2023-03-01T11:21:07;6.70;99.90
60234;DHT22;49514;43.538;-5.708;2023-03-01T11:23:37;6.50;99.90
60234;DHT22;49514;43.538;-5.708;2023-03-01T11:26:07;6.40;99.90
60234;DHT22;49514;43.538;-5.708;2023-03-01T11:28:38;6.30;99.90
60234;DHT22;49514;43.538;-5.708;2023-03-01T11:31:11;6.30;99.90
60234;DHT22;49514;43.538;-5.708;2023-03-01T11:34:03;6.30;99.90
60234;DHT22;49514;43.538;-5.708;2023-03-01T11:36:36;6.40;99.90
60234;DHT22;49514;43.538;-5.708;2023-03-01T11:44:35;6.80;99.90
60234;DHT22;49514;43.538;-5.708;2023-03-01T11:50:35;7.40;99.90
60234;DHT22;49514;43.538;-5.708;2023-03-01T12:13:19;9.10;99.90
60234;DHT22;49514;43.538;-5.708;2023-03-01T12:16:00;9.20;99.90
60234;DHT22;49514;43.538;-5.708;2023-03-01T12:18:13;9.20;99.90
60234;DHT22;49514;43.538;-5.708;2023-03-01T12:25:51;9.30;99.90
60234;DHT22;49514;43.538;-5.708;2023-03-01T12:28:24;9.30;99.90
60234;DHT22;49514;43.538;-5.708;2023-03-01T12:51:30;8.90;99.90
60234;DHT22;49514;43.538;-5.708;2023-03-01T12:53:58;8.80;99.90
60234;DHT22;49514;43.538;-5.708;2023-03-01T12:56:29;8.80;99.90
60234;DHT22;49514;43.538;-5.708;2023-03-01T13:01:36;9.20;99.90
60234;DHT22;49514;43.538;-5.708;2023-03-01T13:09:39;9.80;99.90
60234;DHT22;49514;43.538;-5.708;2023-03-01T13:14:55;10.30;99.90
60234;DHT22;49514;43.538;-5.708;2023-03-01T13:17:29;10.40;99.90
60234;DHT22;49514;43.538;-5.708;2023-03-01T13:19:57;10.40;99.90
60234;DHT22;49514;43.538;-5.708;2023-03-01T13:22:29;10.60;99.90
60234;DHT22;49514;43.538;-5.708;2023-03-01T13:25:10;10.50;99.90
60234;DHT22;49514;43.538;-5.708;2023-03-01T13:27:37;10.40;99.90
60234;DHT22;49514;43.538;-5.708;2023-03-01T13:30:12;10.10;99.90
60234;DHT22;49514;43.538;-5.708;2023-03-01T13:32:50;9.90;99.90
60234;DHT22;49514;43.538;-5.708;2023-03-01T13:37:43;9.50;99.90
60234;DHT22;49514;43.538;-5.708;2023-03-01T13:42:45;9.20;99.90
60234;DHT22;49514;43.538;-5.708;2023-03-01T13:45:57;9.20;99.90
60234;DHT22;49514;43.538;-5.708;2023-03-01T13:48:14;9.20;99.90
60234;DHT22;49514;43.538;-5.708;2023-03-01T13:50:46;9.20;99.90
60234;DHT22;49514;43.538;-5.708;2023-03-01T13:53:18;9.00;99.90
60234;DHT22;49514;43.538;-5.708;2023-03-01T13:55:49;9.00;99.90
60234;DHT22;49514;43.538;-5.708;2023-03-01T14:00:47;8.80;99.90
60234;DHT22;49514;43.538;-5.708;2023-03-01T14:05:40;8.60;99.90
60234;DHT22;49514;43.538;-5.708;2023-03-01T14:08:20;8.60;99.90
60234;DHT22;49514;43.538;-5.708;2023-03-01T14:13:41;8.50;99.90
60234;DHT22;49514;43.538;-5.708;2023-03-01T14:19:06;8.70;99.90
60234;DHT22;49514;43.538;-5.708;2023-03-01T14:21:34;8.90;99.90
60234;DHT22;49514;43.538;-5.708;2023-03-01T14:24:02;11.80;99.90
60234;DHT22;49514;43.538;-5.708;2023-03-01T14:26:29;13.00;99.90
60234;DHT22;49514;43.538;-5.708;2023-03-01T14:28:59;13.60;99.90
60234;DHT22;49514;43.538;-5.708;2023-03-01T14:31:38;15.30;99.90
60234;DHT22;49514;43.538;-5.708;2023-03-01T14:34:05;16.10;99.90
60234;DHT22;49514;43.538;-5.708;2023-03-01T14:36:33;18.60;99.90
60234;DHT22;49514;43.538;-5.708;2023-03-01T14:39:00;19.20;99.90
60234;DHT22;49514;43.538;-5.708;2023-03-01T14:41:33;19.10;99.90
60234;DHT22;49514;43.538;-5.708;2023-03-01T14:44:02;19.70;99.90
60234;DHT22;49514;43.538;-5.708;2023-03-01T14:46:34;18.40;99.90
60234;DHT22;49514;43.538;-5.708;2023-03-01T14:49:07;17.00;99.80
60234;DHT22;49514;43.538;-5.708;2023-03-01T14:51:39;15.90;99.90
60234;DHT22;49514;43.538;-5.708;2023-03-01T14:54:20;15.10;99.90
60234;DHT22;49514;43.538;-5.708;2023-03-01T14:56:48;14.20;99.90
60234;DHT22;49514;43.538;-5.708;2023-03-01T14:59:18;13.60;99.90
60234;DHT22;49514;43.538;-5.708;2023-03-01T15:01:45;13.10;99.90
60234;DHT22;49514;43.538;-5.708;2023-03-01T15:04:12;12.40;99.90
60234;DHT22;49514;43.538;-5.708;2023-03-01T15:06:40;11.90;99.90
60234;DHT22;49514;43.538;-5.708;2023-03-01T15:09:13;11.60;99.90
60234;DHT22;49514;43.538;-5.708;2023-03-01T15:11:42;11.40;99.90
60234;DHT22;49514;43.538;-5.708;2023-03-01T15:14:45;11.20;99.90
60234;DHT22;49514;43.538;-5.708;2023-03-01T15:17:34;11.10;99.90
60234;DHT22;49514;43.538;-5.708;2023-03-01T15:20:05;11.30;99.90
60234;DHT22;49514;43.538;-5.708;2023-03-01T15:22:33;11.50;99.90
60234;DHT22;49514;43.538;-5.708;2023-03-01T15:25:02;11.70;99.90
60234;DHT22;49514;43.538;-5.708;2023-03-01T15:27:29;11.90;99.90
60234;DHT22;49514;43.538;-5.708;2023-03-01T15:30:02;12.10;99.90
60234;DHT22;49514;43.538;-5.708;2023-03-01T15:32:34;12.40;99.90
60234;DHT22;49514;43.538;-5.708;2023-03-01T15:41:04;12.80;99.90
60234;DHT22;49514;43.538;-5.708;2023-03-01T15:43:43;12.80;99.90
60234;DHT22;49514;43.538;-5.708;2023-03-01T15:46:22;12.70;99.90
60234;DHT22;49514;43.538;-5.708;2023-03-01T15:48:54;12.50;99.90
60234;DHT22;49514;43.538;-5.708;2023-03-01T15:51:35;12.30;99.90
60234;DHT22;49514;43.538;-5.708;2023-03-01T15:54:06;12.20;99.90
60234;DHT22;49514;43.538;-5.708;2023-03-01T15:56:35;11.90;99.90
60234;DHT22;49514;43.538;-5.708;2023-03-01T15:59:02;11.70;99.90
60234;DHT22;49514;43.538;-5.708;2023-03-01T16:01:29;11.60;99.90
60234;DHT22;49514;43.538;-5.708;2023-03-01T16:03:57;11.50;99.90
60234;DHT22;49514;43.538;-5.708;2023-03-01T16:06:25;11.50;99.90
60234;DHT22;49514;43.538;-5.708;2023-03-01T16:08:51;11.40;99.90
60234;DHT22;49514;43.538;-5.708;2023-03-01T16:11:20;11.60;99.90
60234;DHT22;49514;43.538;-5.708;2023-03-01T16:13:46;11.60;99.90
60234;DHT22;49514;43.538;-5.708;2023-03-01T16:16:15;11.60;99.90
60234;DHT22;49514;43.538;-5.708;2023-03-01T16:18:44;11.50;99.90
60234;DHT22;49514;43.538;-5.708;2023-03-01T16:21:22;11.60;99.90
60234;DHT22;49514;43.538;-5.708;2023-03-01T16:23:49;11.50;99.90
60234;DHT22;49514;43.538;-5.708;2023-03-01T16:26:17;11.80;99.90
60234;DHT22;49514;43.538;-5.708;2023-03-01T16:28:45;12.60;99.90
60234;DHT22;49514;43.538;-5.708;2023-03-01T16:31:16;14.50;99.90
60234;DHT22;49514;43.538;-5.708;2023-03-01T16:33:43;14.90;99.90
60234;DHT22;49514;43.538;-5.708;2023-03-01T16:36:17;14.70;99.90
60234;DHT22;49514;43.538;-5.708;2023-03-01T16:38:44;14.40;99.90
60234;DHT22;49514;43.538;-5.708;2023-03-01T16:41:13;14.10;99.90
60234;DHT22;49514;43.538;-5.708;2023-03-01T16:43:40;13.80;99.90
60234;DHT22;49514;43.538;-5.708;2023-03-01T16:46:22;13.50;99.90
60234;DHT22;49514;43.538;-5.708;2023-03-01T16:48:48;13.10;99.90
60234;DHT22;49514;43.538;-5.708;2023-03-01T16:51:16;13.00;99.90
60234;DHT22;49514;43.538;-5.708;2023-03-01T16:53:42;12.90;99.90
60234;DHT22;49514;43.538;-5.708;2023-03-01T16:56:11;12.70;99.90
60234;DHT22;49514;43.538;-5.708;2023-03-01T16:58:39;12.60;99.90
60234;DHT22;49514;43.538;-5.708;2023-03-01T17:01:10;12.40;99.90
60234;DHT22;49514;43.538;-5.708;2023-03-01T17:03:38;12.10;99.90
60234;DHT22;49514;43.538;-5.708;2023-03-01T17:06:11;12.10;99.90
60234;DHT22;49514;43.538;-5.708;2023-03-01T17:08:39;12.10;99.90
60234;DHT22;49514;43.538;-5.708;2023-03-01T17:11:10;12.20;99.90
60234;DHT22;49514;43.538;-5.708;2023-03-01T17:13:38;12.10;99.90
60234;DHT22;49514;43.538;-5.708;2023-03-01T17:16:07;12.10;99.90
60234;DHT22;49514;43.538;-5.708;2023-03-01T17:18:35;11.90;99.90
60234;DHT22;49514;43.538;-5.708;2023-03-01T17:21:02;11.70;99.90
60234;DHT22;49514;43.538;-5.708;2023-03-01T17:23:30;11.40;99.90
60234;DHT22;49514;43.538;-5.708;2023-03-01T17:25:57;11.00;99.90
60234;DHT22;49514;43.538;-5.708;2023-03-01T17:28:27;10.80;99.90
60234;DHT22;49514;43.538;-5.708;2023-03-01T17:30:54;10.70;99.90
60234;DHT22;49514;43.538;-5.708;2023-03-01T17:33:21;10.50;99.90
60234;DHT22;49514;43.538;-5.708;2023-03-01T17:35:49;10.40;99.90
60234;DHT22;49514;43.538;-5.708;2023-03-01T17:38:16;10.20;99.90
60234;DHT22;49514;43.538;-5.708;2023-03-01T17:40:44;10.10;99.90
60234;DHT22;49514;43.538;-5.708;2023-03-01T17:43:14;10.00;99.90
60234;DHT22;49514;43.538;-5.708;2023-03-01T17:45:41;9.90;99.90
60234;DHT22;49514;43.538;-5.708;2023-03-01T17:48:13;9.80;99.90
60234;DHT22;49514;43.538;-5.708;2023-03-01T17:50:41;9.60;99.90
60234;DHT22;49514;43.538;-5.708;2023-03-01T17:53:08;9.60;99.90
60234;DHT22;49514;43.538;-5.708;2023-03-01T17:55:36;9.50;99.90
60234;DHT22;49514;43.538;-5.708;2023-03-01T17:58:04;9.40;99.90
60234;DHT22;49514;43.538;-5.708;2023-03-01T18:00:32;9.40;99.90
60234;DHT22;49514;43.538;-5.708;2023-03-01T18:02:59;9.30;99.90
60234;DHT22;49514;43.538;-5.708;2023-03-01T18:10:25;9.20;99.90
60234;DHT22;49514;43.538;-5.708;2023-03-01T18:12:53;9.20;99.90
60234;DHT22;49514;43.538;-5.708;2023-03-01T18:15:20;9.10;99.90
60234;DHT22;49514;43.538;-5.708;2023-03-01T18:17:46;9.10;99.90
60234;DHT22;49514;43.538;-5.708;2023-03-01T18:20:13;9.10;99.90
60234;DHT22;49514;43.538;-5.708;2023-03-01T18:22:41;9.10;99.90
60234;DHT22;49514;43.538;-5.708;2023-03-01T18:25:08;9.00;99.90
60234;DHT22;49514;43.538;-5.708;2023-03-01T18:27:34;9.00;99.90
60234;DHT22;49514;43.538;-5.708;2023-03-01T18:32:31;9.00;99.90
60234;DHT22;49514;43.538;-5.708;2023-03-01T18:34:58;8.90;99.90
60234;DHT22;49514;43.538;-5.708;2023-03-01T18:37:25;8.90;99.90
60234;DHT22;49514;43.538;-5.708;2023-03-01T18:44:48;8.70;99.90
60234;DHT22;49514;43.538;-5.708;2023-03-01T18:49:41;8.70;99.90
60234;DHT22;49514;43.538;-5.708;2023-03-01T18:52:09;8.60;99.90
60234;DHT22;49514;43.538;-5.708;2023-03-01T18:54:36;8.60;99.90
60234;DHT22;49514;43.538;-5.708;2023-03-01T18:57:03;8.60;99.90
60234;DHT22;49514;43.538;-5.708;2023-03-01T18:59:30;8.50;99.90
60234;DHT22;49514;43.538;-5.708;2023-03-01T19:01:57;8.50;99.90
60234;DHT22;49514;43.538;-5.708;2023-03-01T19:04:23;8.50;99.90
60234;DHT22;49514;43.538;-5.708;2023-03-01T19:06:50;8.40;99.90
60234;DHT22;49514;43.538;-5.708;2023-03-01T19:09:17;8.40;99.90
60234;DHT22;49514;43.538;-5.708;2023-03-01T19:11:44;8.40;99.90
60234;DHT22;49514;43.538;-5.708;2023-03-01T19:14:10;8.40;99.90
60234;DHT22;49514;43.538;-5.708;2023-03-01T19:16:37;8.40;99.90
60234;DHT22;49514;43.538;-5.708;2023-03-01T19:19:05;8.40;99.90
60234;DHT22;49514;43.538;-5.708;2023-03-01T19:21:33;8.40;99.90